Weather at Katowice International Airport

Public forecast

Using degrees Celsius for public forecast. Weather courtesy of forecast.io.

Current aviation weather report (METAR) for Katowice International Airport

Retrieved 2022/05/21 09:30 UTC (13 minutes ago):

EPKT 210930Z 28023G33KT 9999 SCT046 19/06 Q1014

Aviation forecast (TAF) for Katowice International Airport

Retrieved 2022/05/21 06:33 UTC (3 hours ago):

TAF EPKT 210530Z 2106/2206 29015G30KT 9999 BKN030 TEMPO 2106/2114 29025G40KT PROB30 TEMPO 2106/2108 -SHRA BKN040CB PROB40 TEMPO 2111/2119 -SHRA BKN040CB BECMG 2116/2119 29010KT